sensor_id;sensor_type;location;lat;lon;timestamp;P1;durP1;ratioP1;P2;durP2;ratioP2
14516;SDS011;7344;50.864;4.362;2023-05-10T00:02:06;12.67;;;8.20;;
14516;SDS011;7344;50.864;4.362;2023-05-10T00:04:32;11.93;;;8.13;;
14516;SDS011;7344;50.864;4.362;2023-05-10T00:06:58;13.23;;;8.77;;
14516;SDS011;7344;50.864;4.362;2023-05-10T00:09:23;13.17;;;8.20;;
14516;SDS011;7344;50.864;4.362;2023-05-10T00:11:49;11.40;;;8.27;;
14516;SDS011;7344;50.864;4.362;2023-05-10T00:14:15;16.60;;;8.27;;
14516;SDS011;7344;50.864;4.362;2023-05-10T00:16:40;9.10;;;8.13;;
14516;SDS011;7344;50.864;4.362;2023-05-10T00:19:06;16.20;;;9.50;;
14516;SDS011;7344;50.864;4.362;2023-05-10T00:21:32;13.37;;;8.97;;
14516;SDS011;7344;50.864;4.362;2023-05-10T00:23:58;13.57;;;9.20;;
14516;SDS011;7344;50.864;4.362;2023-05-10T00:26:24;12.60;;;8.67;;
14516;SDS011;7344;50.864;4.362;2023-05-10T00:28:50;11.87;;;8.83;;
14516;SDS011;7344;50.864;4.362;2023-05-10T00:31:16;13.37;;;8.83;;
14516;SDS011;7344;50.864;4.362;2023-05-10T00:33:41;13.00;;;9.43;;
14516;SDS011;7344;50.864;4.362;2023-05-10T00:36:07;14.23;;;9.77;;
14516;SDS011;7344;50.864;4.362;2023-05-10T00:38:33;14.07;;;8.90;;
14516;SDS011;7344;50.864;4.362;2023-05-10T00:40:59;18.30;;;9.50;;
14516;SDS011;7344;50.864;4.362;2023-05-10T00:43:24;13.90;;;9.03;;
14516;SDS011;7344;50.864;4.362;2023-05-10T00:45:50;12.67;;;9.27;;
14516;SDS011;7344;50.864;4.362;2023-05-10T00:48:16;19.87;;;9.50;;
14516;SDS011;7344;50.864;4.362;2023-05-10T00:50:41;15.50;;;9.80;;
14516;SDS011;7344;50.864;4.362;2023-05-10T00:53:07;13.17;;;9.07;;
14516;SDS011;7344;50.864;4.362;2023-05-10T00:55:33;15.33;;;9.77;;
14516;SDS011;7344;50.864;4.362;2023-05-10T00:57:59;15.67;;;9.07;;
14516;SDS011;7344;50.864;4.362;2023-05-10T01:00:26;17.57;;;10.30;;
14516;SDS011;7344;50.864;4.362;2023-05-10T01:02:53;17.30;;;10.77;;
14516;SDS011;7344;50.864;4.362;2023-05-10T01:05:18;18.00;;;9.27;;
14516;SDS011;7344;50.864;4.362;2023-05-10T01:07:45;14.57;;;9.87;;
14516;SDS011;7344;50.864;4.362;2023-05-10T01:10:11;14.70;;;9.87;;
14516;SDS011;7344;50.864;4.362;2023-05-10T01:12:38;16.87;;;10.40;;
14516;SDS011;7344;50.864;4.362;2023-05-10T01:15:06;13.13;;;10.10;;
14516;SDS011;7344;50.864;4.362;2023-05-10T01:17:33;15.07;;;10.30;;
14516;SDS011;7344;50.864;4.362;2023-05-10T01:20:00;14.60;;;10.77;;
14516;SDS011;7344;50.864;4.362;2023-05-10T01:33:27;17.73;;;10.83;;
14516;SDS011;7344;50.864;4.362;2023-05-10T01:39:17;14.90;;;11.57;;
14516;SDS011;7344;50.864;4.362;2023-05-10T01:41:51;15.83;;;11.70;;
14516;SDS011;7344;50.864;4.362;2023-05-10T01:47:12;16.03;;;12.23;;
14516;SDS011;7344;50.864;4.362;2023-05-10T01:49:51;17.63;;;12.50;;
14516;SDS011;7344;50.864;4.362;2023-05-10T01:52:19;18.67;;;12.47;;
14516;SDS011;7344;50.864;4.362;2023-05-10T01:55:02;16.43;;;11.67;;
14516;SDS011;7344;50.864;4.362;2023-05-10T01:57:39;14.83;;;11.47;;
14516;SDS011;7344;50.864;4.362;2023-05-10T02:00:07;19.07;;;11.90;;
14516;SDS011;7344;50.864;4.362;2023-05-10T02:02:39;15.03;;;11.93;;
14516;SDS011;7344;50.864;4.362;2023-05-10T02:05:07;17.47;;;12.83;;
14516;SDS011;7344;50.864;4.362;2023-05-10T02:07:35;18.50;;;12.07;;
14516;SDS011;7344;50.864;4.362;2023-05-10T02:10:02;16.67;;;12.03;;
14516;SDS011;7344;50.864;4.362;2023-05-10T02:12:31;16.03;;;12.87;;
14516;SDS011;7344;50.864;4.362;2023-05-10T02:14:59;18.97;;;13.53;;
14516;SDS011;7344;50.864;4.362;2023-05-10T02:17:28;17.40;;;12.80;;
14516;SDS011;7344;50.864;4.362;2023-05-10T02:19:55;18.13;;;12.37;;
14516;SDS011;7344;50.864;4.362;2023-05-10T02:22:23;20.37;;;12.57;;
14516;SDS011;7344;50.864;4.362;2023-05-10T02:24:50;16.40;;;12.20;;
14516;SDS011;7344;50.864;4.362;2023-05-10T02:27:16;16.53;;;11.77;;
14516;SDS011;7344;50.864;4.362;2023-05-10T02:29:44;14.40;;;12.07;;
14516;SDS011;7344;50.864;4.362;2023-05-10T02:32:10;16.63;;;12.00;;
14516;SDS011;7344;50.864;4.362;2023-05-10T02:34:37;17.30;;;12.70;;
14516;SDS011;7344;50.864;4.362;2023-05-10T02:37:04;16.87;;;12.10;;
14516;SDS011;7344;50.864;4.362;2023-05-10T02:39:31;15.37;;;11.70;;
14516;SDS011;7344;50.864;4.362;2023-05-10T02:41:57;16.50;;;11.60;;
14516;SDS011;7344;50.864;4.362;2023-05-10T02:44:24;20.27;;;12.40;;
14516;SDS011;7344;50.864;4.362;2023-05-10T02:46:52;18.57;;;11.77;;
14516;SDS011;7344;50.864;4.362;2023-05-10T02:49:17;16.73;;;12.20;;
14516;SDS011;7344;50.864;4.362;2023-05-10T02:51:57;18.30;;;11.90;;
14516;SDS011;7344;50.864;4.362;2023-05-10T02:54:29;17.03;;;11.43;;
14516;SDS011;7344;50.864;4.362;2023-05-10T02:56:57;14.87;;;11.90;;
14516;SDS011;7344;50.864;4.362;2023-05-10T02:59:26;16.30;;;11.93;;
14516;SDS011;7344;50.864;4.362;2023-05-10T03:01:52;16.83;;;11.87;;
14516;SDS011;7344;50.864;4.362;2023-05-10T03:04:18;15.03;;;10.97;;
14516;SDS011;7344;50.864;4.362;2023-05-10T03:06:44;15.73;;;10.97;;
14516;SDS011;7344;50.864;4.362;2023-05-10T03:09:10;14.20;;;11.17;;
14516;SDS011;7344;50.864;4.362;2023-05-10T03:11:39;16.27;;;11.10;;
14516;SDS011;7344;50.864;4.362;2023-05-10T03:14:39;14.30;;;11.33;;
14516;SDS011;7344;50.864;4.362;2023-05-10T03:17:40;15.97;;;11.03;;
14516;SDS011;7344;50.864;4.362;2023-05-10T03:20:12;15.97;;;11.40;;
14516;SDS011;7344;50.864;4.362;2023-05-10T03:22:55;15.40;;;11.93;;
14516;SDS011;7344;50.864;4.362;2023-05-10T03:25:29;15.13;;;11.57;;
14516;SDS011;7344;50.864;4.362;2023-05-10T03:27:56;15.90;;;11.77;;
14516;SDS011;7344;50.864;4.362;2023-05-10T03:30:22;16.70;;;12.17;;
14516;SDS011;7344;50.864;4.362;2023-05-10T03:32:49;16.70;;;11.77;;
14516;SDS011;7344;50.864;4.362;2023-05-10T03:35:15;19.17;;;12.67;;
14516;SDS011;7344;50.864;4.362;2023-05-10T03:37:41;20.20;;;12.00;;
14516;SDS011;7344;50.864;4.362;2023-05-10T03:40:06;16.27;;;11.83;;
14516;SDS011;7344;50.864;4.362;2023-05-10T03:42:33;16.43;;;12.77;;
14516;SDS011;7344;50.864;4.362;2023-05-10T03:44:58;17.17;;;13.47;;
14516;SDS011;7344;50.864;4.362;2023-05-10T03:47:24;21.50;;;14.67;;
14516;SDS011;7344;50.864;4.362;2023-05-10T03:49:50;22.03;;;14.93;;
14516;SDS011;7344;50.864;4.362;2023-05-10T03:52:15;21.60;;;13.73;;
14516;SDS011;7344;50.864;4.362;2023-05-10T03:54:41;22.23;;;14.73;;
14516;SDS011;7344;50.864;4.362;2023-05-10T03:57:06;24.80;;;16.37;;
14516;SDS011;7344;50.864;4.362;2023-05-10T03:59:32;23.90;;;16.73;;
14516;SDS011;7344;50.864;4.362;2023-05-10T04:01:58;24.10;;;16.90;;
14516;SDS011;7344;50.864;4.362;2023-05-10T04:04:23;21.67;;;16.03;;
14516;SDS011;7344;50.864;4.362;2023-05-10T04:06:49;25.67;;;16.80;;
14516;SDS011;7344;50.864;4.362;2023-05-10T04:09:15;26.27;;;17.83;;
14516;SDS011;7344;50.864;4.362;2023-05-10T04:11:41;25.03;;;17.10;;
14516;SDS011;7344;50.864;4.362;2023-05-10T04:14:07;24.77;;;17.87;;
14516;SDS011;7344;50.864;4.362;2023-05-10T04:16:33;25.10;;;18.00;;
14516;SDS011;7344;50.864;4.362;2023-05-10T04:18:59;31.27;;;18.40;;
14516;SDS011;7344;50.864;4.362;2023-05-10T04:21:24;29.37;;;18.73;;
14516;SDS011;7344;50.864;4.362;2023-05-10T04:23:50;25.70;;;18.27;;
14516;SDS011;7344;50.864;4.362;2023-05-10T04:26:16;28.10;;;18.00;;
14516;SDS011;7344;50.864;4.362;2023-05-10T04:28:41;29.43;;;18.07;;
14516;SDS011;7344;50.864;4.362;2023-05-10T04:31:08;27.97;;;17.93;;
14516;SDS011;7344;50.864;4.362;2023-05-10T04:33:34;28.63;;;18.67;;
14516;SDS011;7344;50.864;4.362;2023-05-10T04:36:00;30.10;;;19.43;;
14516;SDS011;7344;50.864;4.362;2023-05-10T04:38:26;25.23;;;18.07;;
14516;SDS011;7344;50.864;4.362;2023-05-10T04:40:53;29.20;;;19.13;;
14516;SDS011;7344;50.864;4.362;2023-05-10T04:43:18;26.33;;;18.30;;
14516;SDS011;7344;50.864;4.362;2023-05-10T04:45:46;32.07;;;20.23;;
14516;SDS011;7344;50.864;4.362;2023-05-10T04:48:12;28.20;;;19.33;;
14516;SDS011;7344;50.864;4.362;2023-05-10T04:50:38;31.37;;;19.13;;
14516;SDS011;7344;50.864;4.362;2023-05-10T04:53:04;29.30;;;18.67;;
14516;SDS011;7344;50.864;4.362;2023-05-10T04:55:30;31.10;;;20.70;;
14516;SDS011;7344;50.864;4.362;2023-05-10T04:57:55;33.00;;;20.60;;
14516;SDS011;7344;50.864;4.362;2023-05-10T05:00:22;29.40;;;19.97;;
14516;SDS011;7344;50.864;4.362;2023-05-10T05:02:48;30.10;;;20.77;;
14516;SDS011;7344;50.864;4.362;2023-05-10T05:05:14;29.27;;;19.97;;
14516;SDS011;7344;50.864;4.362;2023-05-10T05:07:39;28.70;;;20.47;;
14516;SDS011;7344;50.864;4.362;2023-05-10T05:10:06;30.40;;;19.93;;
14516;SDS011;7344;50.864;4.362;2023-05-10T05:12:32;29.93;;;20.13;;
14516;SDS011;7344;50.864;4.362;2023-05-10T05:14:58;24.97;;;18.97;;
14516;SDS011;7344;50.864;4.362;2023-05-10T05:17:23;27.27;;;20.17;;
14516;SDS011;7344;50.864;4.362;2023-05-10T05:19:49;29.30;;;20.67;;
14516;SDS011;7344;50.864;4.362;2023-05-10T05:22:14;28.33;;;19.53;;
14516;SDS011;7344;50.864;4.362;2023-05-10T05:24:40;27.57;;;19.30;;
14516;SDS011;7344;50.864;4.362;2023-05-10T05:27:06;29.33;;;20.70;;
14516;SDS011;7344;50.864;4.362;2023-05-10T05:29:31;28.10;;;19.03;;
14516;SDS011;7344;50.864;4.362;2023-05-10T05:31:57;27.03;;;19.77;;
14516;SDS011;7344;50.864;4.362;2023-05-10T05:34:23;28.37;;;19.20;;
14516;SDS011;7344;50.864;4.362;2023-05-10T05:36:49;25.57;;;18.13;;
14516;SDS011;7344;50.864;4.362;2023-05-10T05:39:15;23.83;;;17.83;;
14516;SDS011;7344;50.864;4.362;2023-05-10T05:41:41;22.70;;;17.67;;
14516;SDS011;7344;50.864;4.362;2023-05-10T05:44:07;22.97;;;16.90;;
14516;SDS011;7344;50.864;4.362;2023-05-10T05:46:32;16.93;;;13.37;;
14516;SDS011;7344;50.864;4.362;2023-05-10T05:48:58;14.70;;;11.40;;
14516;SDS011;7344;50.864;4.362;2023-05-10T05:51:24;15.57;;;11.50;;
14516;SDS011;7344;50.864;4.362;2023-05-10T05:53:50;14.53;;;10.50;;
14516;SDS011;7344;50.864;4.362;2023-05-10T05:56:15;17.07;;;11.87;;
14516;SDS011;7344;50.864;4.362;2023-05-10T05:58:42;21.03;;;12.33;;
14516;SDS011;7344;50.864;4.362;2023-05-10T06:01:08;16.43;;;11.73;;
14516;SDS011;7344;50.864;4.362;2023-05-10T06:03:34;15.47;;;11.87;;
14516;SDS011;7344;50.864;4.362;2023-05-10T06:05:59;15.43;;;12.00;;
14516;SDS011;7344;50.864;4.362;2023-05-10T06:08:25;18.48;;;12.65;;
14516;SDS011;7344;50.864;4.362;2023-05-10T06:10:51;23.47;;;11.80;;
14516;SDS011;7344;50.864;4.362;2023-05-10T06:13:16;24.03;;;12.87;;
14516;SDS011;7344;50.864;4.362;2023-05-10T06:15:42;15.33;;;11.83;;
14516;SDS011;7344;50.864;4.362;2023-05-10T06:18:08;14.97;;;11.60;;
14516;SDS011;7344;50.864;4.362;2023-05-10T06:20:33;20.77;;;12.67;;
14516;SDS011;7344;50.864;4.362;2023-05-10T06:22:59;18.20;;;13.67;;
14516;SDS011;7344;50.864;4.362;2023-05-10T06:25:24;17.30;;;14.00;;
14516;SDS011;7344;50.864;4.362;2023-05-10T06:27:52;19.10;;;13.60;;
14516;SDS011;7344;50.864;4.362;2023-05-10T06:30:22;20.47;;;14.73;;
14516;SDS011;7344;50.864;4.362;2023-05-10T06:32:52;20.85;;;15.00;;
14516;SDS011;7344;50.864;4.362;2023-05-10T06:35:18;21.40;;;14.50;;
14516;SDS011;7344;50.864;4.362;2023-05-10T06:37:44;17.97;;;11.23;;
14516;SDS011;7344;50.864;4.362;2023-05-10T06:40:10;15.23;;;10.50;;
14516;SDS011;7344;50.864;4.362;2023-05-10T06:42:35;11.43;;;9.17;;
14516;SDS011;7344;50.864;4.362;2023-05-10T06:45:01;11.17;;;8.27;;
14516;SDS011;7344;50.864;4.362;2023-05-10T06:47:27;12.00;;;8.00;;
14516;SDS011;7344;50.864;4.362;2023-05-10T06:49:53;9.90;;;7.67;;
14516;SDS011;7344;50.864;4.362;2023-05-10T06:52:18;11.33;;;8.13;;
14516;SDS011;7344;50.864;4.362;2023-05-10T06:54:44;15.83;;;9.07;;
14516;SDS011;7344;50.864;4.362;2023-05-10T06:57:09;13.87;;;8.83;;
14516;SDS011;7344;50.864;4.362;2023-05-10T06:59:35;15.60;;;9.83;;
14516;SDS011;7344;50.864;4.362;2023-05-10T07:02:01;18.47;;;10.67;;
14516;SDS011;7344;50.864;4.362;2023-05-10T07:04:27;17.67;;;10.67;;
14516;SDS011;7344;50.864;4.362;2023-05-10T07:06:53;17.30;;;10.50;;
14516;SDS011;7344;50.864;4.362;2023-05-10T07:09:18;15.97;;;10.83;;
14516;SDS011;7344;50.864;4.362;2023-05-10T07:11:44;21.17;;;11.10;;
14516;SDS011;7344;50.864;4.362;2023-05-10T07:14:10;17.43;;;11.27;;
14516;SDS011;7344;50.864;4.362;2023-05-10T07:16:35;18.93;;;11.03;;
14516;SDS011;7344;50.864;4.362;2023-05-10T07:19:01;22.80;;;12.10;;
14516;SDS011;7344;50.864;4.362;2023-05-10T07:21:27;21.07;;;11.90;;
14516;SDS011;7344;50.864;4.362;2023-05-10T07:23:53;22.10;;;11.70;;
14516;SDS011;7344;50.864;4.362;2023-05-10T07:26:19;20.67;;;11.63;;
14516;SDS011;7344;50.864;4.362;2023-05-10T07:28:45;20.07;;;11.30;;
14516;SDS011;7344;50.864;4.362;2023-05-10T07:31:11;23.63;;;12.60;;
14516;SDS011;7344;50.864;4.362;2023-05-10T07:33:37;17.70;;;11.97;;
14516;SDS011;7344;50.864;4.362;2023-05-10T07:36:03;18.67;;;12.23;;
14516;SDS011;7344;50.864;4.362;2023-05-10T07:38:29;20.00;;;10.10;;
14516;SDS011;7344;50.864;4.362;2023-05-10T07:40:54;20.47;;;10.50;;
14516;SDS011;7344;50.864;4.362;2023-05-10T07:43:20;19.10;;;10.73;;
14516;SDS011;7344;50.864;4.362;2023-05-10T07:45:45;18.33;;;10.10;;
14516;SDS011;7344;50.864;4.362;2023-05-10T07:48:11;18.97;;;10.00;;
14516;SDS011;7344;50.864;4.362;2023-05-10T07:50:36;17.27;;;9.90;;
14516;SDS011;7344;50.864;4.362;2023-05-10T07:53:02;18.87;;;10.90;;
14516;SDS011;7344;50.864;4.362;2023-05-10T07:55:28;15.87;;;10.13;;
14516;SDS011;7344;50.864;4.362;2023-05-10T07:57:53;14.07;;;10.60;;
14516;SDS011;7344;50.864;4.362;2023-05-10T08:00:19;15.43;;;10.10;;
14516;SDS011;7344;50.864;4.362;2023-05-10T08:02:46;18.17;;;10.07;;
14516;SDS011;7344;50.864;4.362;2023-05-10T08:05:12;16.10;;;10.17;;
14516;SDS011;7344;50.864;4.362;2023-05-10T08:07:38;13.37;;;9.03;;
14516;SDS011;7344;50.864;4.362;2023-05-10T08:10:04;15.30;;;10.03;;
14516;SDS011;7344;50.864;4.362;2023-05-10T08:12:30;12.70;;;8.90;;
14516;SDS011;7344;50.864;4.362;2023-05-10T08:14:56;17.87;;;9.40;;
14516;SDS011;7344;50.864;4.362;2023-05-10T08:17:22;15.90;;;8.93;;
14516;SDS011;7344;50.864;4.362;2023-05-10T08:19:47;13.47;;;8.40;;
14516;SDS011;7344;50.864;4.362;2023-05-10T08:22:13;12.97;;;8.53;;
14516;SDS011;7344;50.864;4.362;2023-05-10T08:24:38;13.53;;;8.70;;
14516;SDS011;7344;50.864;4.362;2023-05-10T08:27:05;10.70;;;7.83;;
14516;SDS011;7344;50.864;4.362;2023-05-10T08:29:31;9.63;;;7.60;;
14516;SDS011;7344;50.864;4.362;2023-05-10T08:31:56;8.90;;;6.80;;
14516;SDS011;7344;50.864;4.362;2023-05-10T08:34:22;9.03;;;7.00;;
14516;SDS011;7344;50.864;4.362;2023-05-10T08:36:48;8.60;;;6.23;;
14516;SDS011;7344;50.864;4.362;2023-05-10T08:39:14;9.47;;;6.17;;
14516;SDS011;7344;50.864;4.362;2023-05-10T08:41:39;10.83;;;6.50;;
14516;SDS011;7344;50.864;4.362;2023-05-10T08:44:08;11.90;;;6.13;;
14516;SDS011;7344;50.864;4.362;2023-05-10T08:46:34;11.82;;;6.70;;
14516;SDS011;7344;50.864;4.362;2023-05-10T08:49:04;8.02;;;6.43;;
14516;SDS011;7344;50.864;4.362;2023-05-10T08:51:34;9.35;;;6.75;;
14516;SDS011;7344;50.864;4.362;2023-05-10T08:54:02;8.77;;;6.63;;
14516;SDS011;7344;50.864;4.362;2023-05-10T08:56:28;10.35;;;6.97;;
14516;SDS011;7344;50.864;4.362;2023-05-10T08:58:54;10.25;;;6.97;;
14516;SDS011;7344;50.864;4.362;2023-05-10T09:01:21;14.68;;;7.20;;
14516;SDS011;7344;50.864;4.362;2023-05-10T09:03:47;13.38;;;6.80;;
14516;SDS011;7344;50.864;4.362;2023-05-10T09:06:13;8.75;;;6.75;;
14516;SDS011;7344;50.864;4.362;2023-05-10T09:08:40;9.38;;;6.97;;
14516;SDS011;7344;50.864;4.362;2023-05-10T09:11:08;9.88;;;7.35;;
14516;SDS011;7344;50.864;4.362;2023-05-10T09:13:35;10.03;;;7.07;;
14516;SDS011;7344;50.864;4.362;2023-05-10T09:16:01;12.53;;;6.97;;
14516;SDS011;7344;50.864;4.362;2023-05-10T09:18:28;9.52;;;8.23;;
14516;SDS011;7344;50.864;4.362;2023-05-10T09:20:54;10.10;;;7.97;;
14516;SDS011;7344;50.864;4.362;2023-05-10T09:23:19;9.95;;;7.53;;
14516;SDS011;7344;50.864;4.362;2023-05-10T09:25:45;8.37;;;7.30;;
14516;SDS011;7344;50.864;4.362;2023-05-10T09:28:11;11.13;;;7.60;;
14516;SDS011;7344;50.864;4.362;2023-05-10T09:30:37;7.90;;;7.10;;
14516;SDS011;7344;50.864;4.362;2023-05-10T09:33:02;10.63;;;7.40;;
14516;SDS011;7344;50.864;4.362;2023-05-10T09:35:29;9.10;;;7.60;;
14516;SDS011;7344;50.864;4.362;2023-05-10T09:37:57;8.43;;;6.57;;
14516;SDS011;7344;50.864;4.362;2023-05-10T09:40:26;7.30;;;6.47;;
14516;SDS011;7344;50.864;4.362;2023-05-10T09:45:23;7.57;;;6.87;;
14516;SDS011;7344;50.864;4.362;2023-05-10T09:47:50;6.53;;;5.73;;
14516;SDS011;7344;50.864;4.362;2023-05-10T09:50:16;8.97;;;6.67;;
14516;SDS011;7344;50.864;4.362;2023-05-10T09:52:49;7.97;;;6.17;;
14516;SDS011;7344;50.864;4.362;2023-05-10T09:55:20;7.70;;;6.43;;
14516;SDS011;7344;50.864;4.362;2023-05-10T09:57:48;6.97;;;6.27;;
14516;SDS011;7344;50.864;4.362;2023-05-10T10:00:23;7.03;;;6.33;;
14516;SDS011;7344;50.864;4.362;2023-05-10T10:02:55;7.47;;;6.10;;
14516;SDS011;7344;50.864;4.362;2023-05-10T10:05:32;7.20;;;6.20;;
14516;SDS011;7344;50.864;4.362;2023-05-10T10:07:59;7.10;;;6.40;;
14516;SDS011;7344;50.864;4.362;2023-05-10T10:10:27;6.77;;;6.07;;
14516;SDS011;7344;50.864;4.362;2023-05-10T10:12:53;7.17;;;6.47;;
14516;SDS011;7344;50.864;4.362;2023-05-10T10:15:20;6.70;;;6.10;;
14516;SDS011;7344;50.864;4.362;2023-05-10T10:17:46;8.03;;;6.57;;
14516;SDS011;7344;50.864;4.362;2023-05-10T10:20:15;7.30;;;6.60;;
14516;SDS011;7344;50.864;4.362;2023-05-10T10:22:41;8.43;;;6.60;;
14516;SDS011;7344;50.864;4.362;2023-05-10T10:25:09;7.60;;;6.80;;
14516;SDS011;7344;50.864;4.362;2023-05-10T10:30:11;6.90;;;6.23;;
14516;SDS011;7344;50.864;4.362;2023-05-10T10:32:54;7.17;;;6.53;;
14516;SDS011;7344;50.864;4.362;2023-05-10T10:35:30;7.63;;;6.20;;
14516;SDS011;7344;50.864;4.362;2023-05-10T10:37:56;8.07;;;6.70;;
14516;SDS011;7344;50.864;4.362;2023-05-10T10:40:29;7.60;;;6.90;;
14516;SDS011;7344;50.864;4.362;2023-05-10T10:42:56;6.73;;;6.13;;
14516;SDS011;7344;50.864;4.362;2023-05-10T10:45:23;7.53;;;6.83;;
14516;SDS011;7344;50.864;4.362;2023-05-10T10:50:46;8.48;;;7.07;;
14516;SDS011;7344;50.864;4.362;2023-05-10T10:53:11;7.63;;;6.82;;
14516;SDS011;7344;50.864;4.362;2023-05-10T10:55:46;7.33;;;6.70;;
14516;SDS011;7344;50.864;4.362;2023-05-10T10:58:28;7.60;;;6.90;;
14516;SDS011;7344;50.864;4.362;2023-05-10T11:01:16;8.13;;;6.72;;
14516;SDS011;7344;50.864;4.362;2023-05-10T11:04:16;9.50;;;6.93;;
14516;SDS011;7344;50.864;4.362;2023-05-10T11:06:40;8.70;;;7.80;;
14516;SDS011;7344;50.864;4.362;2023-05-10T11:09:08;14.80;;;8.83;;
14516;SDS011;7344;50.864;4.362;2023-05-10T11:11:34;11.73;;;9.00;;
14516;SDS011;7344;50.864;4.362;2023-05-10T11:14:04;11.23;;;9.73;;
14516;SDS011;7344;50.864;4.362;2023-05-10T11:16:40;10.90;;;9.53;;
14516;SDS011;7344;50.864;4.362;2023-05-10T11:19:08;10.17;;;9.17;;
14516;SDS011;7344;50.864;4.362;2023-05-10T11:21:47;11.37;;;9.90;;
14516;SDS011;7344;50.864;4.362;2023-05-10T11:24:36;11.33;;;8.47;;
14516;SDS011;7344;50.864;4.362;2023-05-10T11:27:02;9.37;;;7.73;;
14516;SDS011;7344;50.864;4.362;2023-05-10T11:29:28;8.17;;;7.37;;
14516;SDS011;7344;50.864;4.362;2023-05-10T11:31:53;7.47;;;6.87;;
14516;SDS011;7344;50.864;4.362;2023-05-10T11:34:29;7.70;;;7.00;;
14516;SDS011;7344;50.864;4.362;2023-05-10T11:36:59;8.10;;;7.30;;
14516;SDS011;7344;50.864;4.362;2023-05-10T11:39:28;9.07;;;7.18;;
14516;SDS011;7344;50.864;4.362;2023-05-10T11:41:55;7.05;;;6.22;;
14516;SDS011;7344;50.864;4.362;2023-05-10T11:44:21;7.20;;;6.50;;
14516;SDS011;7344;50.864;4.362;2023-05-10T11:46:47;6.50;;;5.95;;
14516;SDS011;7344;50.864;4.362;2023-05-10T11:49:14;6.75;;;6.13;;
14516;SDS011;7344;50.864;4.362;2023-05-10T11:51:40;7.05;;;6.45;;
14516;SDS011;7344;50.864;4.362;2023-05-10T11:54:07;7.10;;;6.40;;
14516;SDS011;7344;50.864;4.362;2023-05-10T11:56:34;7.10;;;6.50;;
14516;SDS011;7344;50.864;4.362;2023-05-10T11:59:00;7.88;;;7.10;;
14516;SDS011;7344;50.864;4.362;2023-05-10T12:01:27;7.75;;;6.97;;
14516;SDS011;7344;50.864;4.362;2023-05-10T12:03:54;6.40;;;5.90;;
14516;SDS011;7344;50.864;4.362;2023-05-10T12:06:40;8.63;;;6.72;;
14516;SDS011;7344;50.864;4.362;2023-05-10T12:09:06;7.35;;;6.57;;
14516;SDS011;7344;50.864;4.362;2023-05-10T12:11:35;7.43;;;6.70;;
14516;SDS011;7344;50.864;4.362;2023-05-10T12:14:03;9.90;;;7.35;;
14516;SDS011;7344;50.864;4.362;2023-05-10T12:16:30;7.90;;;7.20;;
14516;SDS011;7344;50.864;4.362;2023-05-10T12:18:56;7.75;;;6.93;;
14516;SDS011;7344;50.864;4.362;2023-05-10T12:21:23;7.85;;;7.07;;
14516;SDS011;7344;50.864;4.362;2023-05-10T12:23:50;10.10;;;7.60;;
14516;SDS011;7344;50.864;4.362;2023-05-10T12:26:17;8.57;;;7.07;;
14516;SDS011;7344;50.864;4.362;2023-05-10T12:28:43;8.15;;;7.35;;
14516;SDS011;7344;50.864;4.362;2023-05-10T12:31:09;7.97;;;7.18;;
14516;SDS011;7344;50.864;4.362;2023-05-10T12:33:40;8.57;;;7.68;;
14516;SDS011;7344;50.864;4.362;2023-05-10T12:36:08;7.85;;;7.18;;
14516;SDS011;7344;50.864;4.362;2023-05-10T12:38:35;10.18;;;7.90;;
14516;SDS011;7344;50.864;4.362;2023-05-10T12:41:06;7.55;;;6.95;;
14516;SDS011;7344;50.864;4.362;2023-05-10T12:43:33;7.60;;;6.90;;
14516;SDS011;7344;50.864;4.362;2023-05-10T12:46:09;8.63;;;7.55;;
14516;SDS011;7344;50.864;4.362;2023-05-10T12:48:40;7.88;;;7.15;;
14516;SDS011;7344;50.864;4.362;2023-05-10T12:51:07;12.18;;;8.05;;
14516;SDS011;7344;50.864;4.362;2023-05-10T12:53:41;8.65;;;7.45;;
14516;SDS011;7344;50.864;4.362;2023-05-10T12:56:06;7.32;;;6.63;;
14516;SDS011;7344;50.864;4.362;2023-05-10T12:58:32;6.57;;;5.97;;
14516;SDS011;7344;50.864;4.362;2023-05-10T13:00:59;7.35;;;6.40;;
14516;SDS011;7344;50.864;4.362;2023-05-10T13:03:25;7.03;;;6.22;;
14516;SDS011;7344;50.864;4.362;2023-05-10T13:05:50;6.55;;;5.32;;
14516;SDS011;7344;50.864;4.362;2023-05-10T13:08:16;8.13;;;5.97;;
14516;SDS011;7344;50.864;4.362;2023-05-10T13:10:42;5.78;;;5.28;;
14516;SDS011;7344;50.864;4.362;2023-05-10T13:13:07;6.22;;;5.63;;
14516;SDS011;7344;50.864;4.362;2023-05-10T13:15:33;5.60;;;5.15;;
14516;SDS011;7344;50.864;4.362;2023-05-10T13:18:00;5.93;;;4.70;;
14516;SDS011;7344;50.864;4.362;2023-05-10T13:20:25;6.22;;;4.85;;
14516;SDS011;7344;50.864;4.362;2023-05-10T13:22:52;6.28;;;5.00;;
14516;SDS011;7344;50.864;4.362;2023-05-10T13:25:18;5.85;;;5.20;;
14516;SDS011;7344;50.864;4.362;2023-05-10T13:27:44;5.97;;;5.38;;
14516;SDS011;7344;50.864;4.362;2023-05-10T13:30:10;6.78;;;6.10;;
14516;SDS011;7344;50.864;4.362;2023-05-10T13:32:36;7.30;;;6.18;;
14516;SDS011;7344;50.864;4.362;2023-05-10T13:35:02;6.95;;;6.35;;
14516;SDS011;7344;50.864;4.362;2023-05-10T13:37:31;7.93;;;6.68;;
14516;SDS011;7344;50.864;4.362;2023-05-10T13:39:57;10.43;;;7.20;;
14516;SDS011;7344;50.864;4.362;2023-05-10T13:42:23;7.38;;;6.55;;
14516;SDS011;7344;50.864;4.362;2023-05-10T13:44:49;6.95;;;6.30;;
14516;SDS011;7344;50.864;4.362;2023-05-10T13:47:15;7.80;;;7.03;;
14516;SDS011;7344;50.864;4.362;2023-05-10T13:49:41;7.07;;;6.43;;
14516;SDS011;7344;50.864;4.362;2023-05-10T13:52:07;7.85;;;7.18;;
14516;SDS011;7344;50.864;4.362;2023-05-10T13:54:35;7.90;;;7.20;;
14516;SDS011;7344;50.864;4.362;2023-05-10T13:57:02;8.73;;;7.85;;
14516;SDS011;7344;50.864;4.362;2023-05-10T13:59:28;8.90;;;8.05;;
14516;SDS011;7344;50.864;4.362;2023-05-10T14:01:56;11.88;;;9.48;;
14516;SDS011;7344;50.864;4.362;2023-05-10T14:04:22;10.73;;;9.30;;
14516;SDS011;7344;50.864;4.362;2023-05-10T14:06:48;11.68;;;10.13;;
14516;SDS011;7344;50.864;4.362;2023-05-10T14:09:13;11.60;;;10.57;;
14516;SDS011;7344;50.864;4.362;2023-05-10T14:11:39;11.65;;;9.63;;
14516;SDS011;7344;50.864;4.362;2023-05-10T14:14:08;11.23;;;10.10;;
14516;SDS011;7344;50.864;4.362;2023-05-10T14:16:34;11.50;;;10.10;;
14516;SDS011;7344;50.864;4.362;2023-05-10T14:18:59;12.82;;;10.73;;
14516;SDS011;7344;50.864;4.362;2023-05-10T14:21:25;13.18;;;11.00;;
14516;SDS011;7344;50.864;4.362;2023-05-10T14:23:51;12.95;;;10.75;;
14516;SDS011;7344;50.864;4.362;2023-05-10T14:26:16;13.40;;;11.15;;
14516;SDS011;7344;50.864;4.362;2023-05-10T14:28:42;13.10;;;11.20;;
14516;SDS011;7344;50.864;4.362;2023-05-10T14:31:07;13.15;;;10.43;;
14516;SDS011;7344;50.864;4.362;2023-05-10T14:33:33;13.90;;;10.68;;
14516;SDS011;7344;50.864;4.362;2023-05-10T14:35:59;12.32;;;10.25;;
14516;SDS011;7344;50.864;4.362;2023-05-10T14:38:24;9.88;;;8.82;;
14516;SDS011;7344;50.864;4.362;2023-05-10T14:40:51;12.10;;;10.20;;
14516;SDS011;7344;50.864;4.362;2023-05-10T14:43:17;12.38;;;10.10;;
14516;SDS011;7344;50.864;4.362;2023-05-10T14:45:42;11.82;;;9.77;;
14516;SDS011;7344;50.864;4.362;2023-05-10T14:48:08;12.20;;;10.00;;
14516;SDS011;7344;50.864;4.362;2023-05-10T14:50:37;14.75;;;10.98;;
14516;SDS011;7344;50.864;4.362;2023-05-10T14:53:03;12.32;;;10.98;;
14516;SDS011;7344;50.864;4.362;2023-05-10T14:55:29;11.65;;;10.27;;
14516;SDS011;7344;50.864;4.362;2023-05-10T14:57:54;13.82;;;9.98;;
14516;SDS011;7344;50.864;4.362;2023-05-10T15:00:21;11.55;;;9.55;;
14516;SDS011;7344;50.864;4.362;2023-05-10T15:02:47;9.90;;;8.95;;
14516;SDS011;7344;50.864;4.362;2023-05-10T15:05:13;9.70;;;8.40;;
14516;SDS011;7344;50.864;4.362;2023-05-10T15:07:39;9.88;;;8.85;;
14516;SDS011;7344;50.864;4.362;2023-05-10T15:10:05;10.50;;;8.65;;
14516;SDS011;7344;50.864;4.362;2023-05-10T15:12:31;8.15;;;7.10;;